Time,TemperatureF,DewpointF,PressureIn,WindDirection,WindDirectionDegrees,WindSpeedMPH,WindSpeedGustMPH,Humidity,HourlyPrecipIn,Conditions,Clouds,dailyrainin,SoftwareType,DateUTC
2014-08-28 00:12:00,79.9,73.2,29.97,ESE,112,0.0,-999.0,80,-99.99,,,0.00,Acu-Link.com,2014-08-28 04:12:00,
2014-08-28 00:27:00,79.5,72.8,29.98,SSE,157,0.0,-999.0,80,-99.99,,,0.00,Acu-Link.com,2014-08-28 04:27:00,
2014-08-28 00:43:00,79.5,73.1,29.98,SSE,157,0.0,-999.0,81,-99.99,,,0.00,Acu-Link.com,2014-08-28 04:43:00,
2014-08-28 00:58:00,79.7,73.0,29.97,East,90,1.7,-999.0,80,-99.99,,,0.00,Acu-Link.com,2014-08-28 04:58:00,
2014-08-28 01:13:00,79.5,72.8,29.96,ENE,67,0.0,-999.0,80,-99.99,,,0.00,Acu-Link.com,2014-08-28 05:13:00,
2014-08-28 01:29:00,79.0,72.3,29.96,East,90,0.0,-999.0,80,-99.99,,,0.00,Acu-Link.com,2014-08-28 05:29:00,
2014-08-28 01:44:00,78.6,72.3,29.96,East,90,0.0,-999.0,81,-99.99,,,0.00,Acu-Link.com,2014-08-28 05:44:00,
2014-08-28 01:59:00,78.3,72.7,29.96,East,90,0.0,-999.0,83,-99.99,,,0.00,Acu-Link.com,2014-08-28 05:59:00,
2014-08-28 02:15:00,78.3,73.1,29.95,ESE,112,0.0,-999.0,84,-99.99,,,0.00,Acu-Link.com,2014-08-28 06:15:00,
2014-08-28 02:30:00,77.9,72.7,29.95,ESE,112,0.0,-999.0,84,-99.99,,,0.00,Acu-Link.com,2014-08-28 06:30:00,
2014-08-28 02:45:00,77.5,72.6,29.94,ESE,112,0.0,-999.0,85,-99.99,,,0.00,Acu-Link.com,2014-08-28 06:45:00,
2014-08-28 03:00:00,77.5,72.6,29.94,ESE,112,0.0,-999.0,85,-99.99,,,0.00,Acu-Link.com,2014-08-28 07:00:00,
2014-08-28 03:16:00,77.2,72.7,29.94,NNE,22,0.0,-999.0,86,-99.99,,,0.00,Acu-Link.com,2014-08-28 07:16:00,
2014-08-28 03:31:00,76.8,72.6,29.94,NNE,22,0.0,-999.0,87,-99.99,,,0.00,Acu-Link.com,2014-08-28 07:31:00,
2014-08-28 03:46:00,76.6,72.4,29.93,NNE,22,0.0,-999.0,87,-99.99,,,0.00,Acu-Link.com,2014-08-28 07:46:00,
2014-08-28 04:02:00,76.6,73.1,29.93,North,0,0.0,-999.0,89,-99.99,,,0.00,Acu-Link.com,2014-08-28 08:02:00,
2014-08-28 04:17:00,76.5,73.0,29.93,ENE,67,0.0,-999.0,89,-99.99,,,0.00,Acu-Link.com,2014-08-28 08:17:00,
2014-08-28 04:32:00,76.5,73.0,29.93,ENE,67,0.0,-999.0,89,-99.99,,,0.00,Acu-Link.com,2014-08-28 08:32:00,
2014-08-28 04:48:00,76.5,73.3,29.93,West,270,0.0,-999.0,90,-99.99,,,0.00,Acu-Link.com,2014-08-28 08:48:00,
2014-08-28 05:03:00,76.5,73.7,29.93,WNW,292,0.0,-999.0,91,-99.99,,,0.00,Acu-Link.com,2014-08-28 09:03:00,
2014-08-28 05:18:00,76.5,73.7,29.93,WNW,292,0.0,-999.0,91,-99.99,,,0.00,Acu-Link.com,2014-08-28 09:18:00,
2014-08-28 05:33:00,76.5,73.7,29.93,WNW,292,0.0,-999.0,91,-99.99,,,0.00,Acu-Link.com,2014-08-28 09:33:00,
2014-08-28 05:48:00,76.5,73.7,29.94,WNW,292,0.0,-999.0,91,-99.99,,,0.00,Acu-Link.com,2014-08-28 09:48:00,
2014-08-28 06:04:00,76.5,73.7,29.94,WNW,292,0.0,-999.0,91,-99.99,,,0.00,Acu-Link.com,2014-08-28 10:04:00,